createdAt,value
2016-04-29T00:00:38.833Z,24.77
2016-04-29T00:01:38.836Z,24.71
2016-04-29T00:02:38.838Z,24.68
2016-04-29T00:03:38.841Z,24.71
2016-04-29T00:04:38.844Z,24.68
2016-04-29T00:05:38.846Z,24.77
2016-04-29T00:06:38.864Z,24.81
2016-04-29T00:07:38.866Z,24.71
2016-04-29T00:08:38.869Z,24.77
2016-04-29T00:09:38.872Z,24.77
2016-04-29T00:10:38.875Z,24.77
2016-04-29T00:11:38.878Z,24.77
2016-04-29T00:12:38.895Z,24.77
2016-04-29T00:13:38.929Z,24.78
2016-04-29T00:14:39.253Z,24.76
2016-04-29T00:15:38.717Z,24.77
2016-04-29T00:16:39.057Z,24.68
2016-04-29T00:17:39.099Z,24.73
2016-04-29T00:18:39.133Z,24.77
2016-04-29T00:19:39.165Z,24.73
2016-04-29T00:20:39.025Z,24.68
2016-04-29T00:21:39.199Z,24.71
2016-04-29T00:22:39.215Z,24.67
2016-04-29T00:23:39.229Z,24.68
2016-04-29T00:24:39.253Z,24.73
2016-04-29T00:25:39.260Z,24.71
2016-04-29T00:26:39.268Z,24.73
2016-04-29T00:27:39.275Z,24.68
2016-04-29T00:28:39.282Z,24.62
2016-04-29T00:29:39.021Z,24.67
2016-04-29T00:30:38.900Z,24.64
2016-04-29T00:31:39.312Z,24.67
2016-04-29T00:32:39.316Z,24.67
2016-04-29T00:33:39.321Z,24.71
2016-04-29T00:34:39.324Z,24.64
2016-04-29T00:35:39.343Z,24.62
2016-04-29T00:36:39.362Z,24.65
2016-04-29T00:37:39.365Z,24.73
2016-04-29T00:38:39.353Z,24.62
2016-04-29T00:39:39.357Z,24.69
2016-04-29T00:40:39.375Z,24.67
2016-04-29T00:41:39.378Z,24.71
2016-04-29T00:42:39.381Z,24.65
2016-04-29T00:43:39.384Z,24.68
2016-04-29T18:19:19.000Z,26.69
2016-04-29T18:20:19.143Z,26.72
2016-04-29T18:21:18.554Z,26.69
2016-04-29T18:22:19.307Z,26.84
2016-04-29T18:23:19.310Z,26.77
2016-04-29T18:24:19.327Z,26.84
2016-04-29T18:25:19.315Z,26.87
2016-04-29T22:35:21.293Z,24.34
2016-04-29T22:35:34.121Z,24.32
2016-04-29T22:36:33.951Z,24.35
2016-04-29T22:37:34.095Z,24.34
2016-04-29T22:38:34.098Z,24.3
2016-04-29T22:39:34.132Z,24.4
2016-04-29T22:40:34.120Z,24.37
2016-04-29T22:41:33.966Z,24.35
2016-04-29T22:42:34.140Z,24.34
2016-04-29T22:43:34.142Z,24.37
2016-04-29T22:44:34.145Z,24.28
2016-04-29T22:45:34.147Z,24.37
2016-04-29T22:46:34.150Z,24.35
2016-04-29T22:47:34.154Z,24.35
2016-04-29T22:48:34.016Z,24.4
2016-04-29T22:49:34.018Z,24.52
2016-04-29T22:50:34.177Z,24.32
2016-04-29T22:51:34.180Z,24.31
2016-04-29T22:52:34.026Z,24.37
2016-04-29T22:53:34.201Z,24.37
2016-04-29T22:54:34.205Z,24.32
2016-04-29T22:55:34.207Z,24.35
2016-04-29T22:56:34.209Z,24.32
2016-04-29T22:57:34.213Z,24.37
2016-04-29T22:58:34.090Z,24.4
2016-04-29T22:59:34.249Z,24.35
2016-04-29T23:00:34.236Z,24.39
2016-04-29T23:01:34.254Z,24.35
2016-04-29T23:02:34.240Z,24.45
2016-04-29T23:03:34.259Z,24.45
2016-04-29T23:04:34.262Z,24.5
2016-04-29T23:05:34.296Z,24.42
2016-04-29T23:06:33.971Z,24.39
2016-04-29T23:07:34.301Z,24.39
2016-04-29T23:08:34.147Z,24.46
2016-04-29T23:09:34.291Z,24.42
2016-04-29T23:10:34.294Z,24.42
2016-04-29T23:11:34.312Z,24.39
2016-04-29T23:12:34.315Z,24.35
2016-04-29T23:13:34.318Z,24.3
2016-04-29T23:14:34.164Z,24.37
2016-04-29T23:15:34.339Z,24.39
2016-04-29T23:16:34.029Z,24.45
2016-04-29T23:17:34.187Z,24.37
2016-04-29T23:18:34.722Z,24.35
2016-04-29T23:19:34.349Z,24.3
2016-04-29T23:20:34.367Z,24.34
2016-04-29T23:21:34.386Z,24.46
2016-04-29T23:22:34.216Z,24.39
2016-04-29T23:23:34.454Z,24.45
2016-04-29T23:24:34.222Z,24.45
2016-04-29T23:25:34.396Z,24.45
2016-04-29T23:26:34.415Z,24.45
2016-04-29T23:27:34.246Z,24.5
2016-04-29T23:28:34.405Z,24.47
2016-04-29T23:29:34.408Z,24.47
2016-04-29T23:30:34.426Z,24.39
2016-04-29T23:31:34.429Z,24.47
2016-04-29T23:32:34.275Z,24.46
2016-04-29T23:33:34.824Z,24.49
2016-04-29T23:34:34.296Z,24.37
2016-04-29T23:35:34.440Z,24.35
2016-04-29T23:36:34.457Z,24.31
2016-04-29T23:37:34.491Z,24.34
2016-04-29T23:38:34.478Z,24.3
2016-04-29T23:39:34.465Z,24.28
2016-04-29T23:40:34.484Z,24.35
2016-04-29T23:41:34.486Z,24.28
2016-04-29T23:42:34.504Z,24.3
2016-04-29T23:43:34.507Z,24.31
2016-04-29T23:44:34.354Z,24.27
2016-04-29T23:45:34.512Z,24.2
2016-04-29T23:46:34.359Z,24.2
2016-04-29T23:47:34.518Z,24.3
2016-04-29T23:48:35.287Z,24.32
2016-04-29T23:49:34.540Z,24.22
2016-04-29T23:50:34.542Z,24.25
2016-04-29T23:51:34.561Z,24.21
2016-04-29T23:52:34.391Z,24.27
2016-04-29T23:53:34.550Z,24.18
2016-04-29T23:54:34.569Z,24.24
2016-04-29T23:55:34.586Z,24.2
2016-04-29T23:56:34.574Z,24.25
2016-04-29T23:57:34.591Z,24.2
2016-04-29T23:58:34.594Z,24.3
2016-04-29T23:59:34.597Z,24.22
